sensor_id;sensor_type;location;lat;lon;timestamp;temperature;humidity
49385;DHT22;36795;45.028;38.968;2024-02-21T00:00:00;4.10;69.90
49385;DHT22;36795;45.028;38.968;2024-02-21T00:02:46;4.10;69.90
49385;DHT22;36795;45.028;38.968;2024-02-21T00:05:33;4.10;70.00
49385;DHT22;36795;45.028;38.968;2024-02-21T00:08:19;4.10;69.90
49385;DHT22;36795;45.028;38.968;2024-02-21T00:11:05;4.10;69.80
49385;DHT22;36795;45.028;38.968;2024-02-21T00:13:51;4.20;69.80
49385;DHT22;36795;45.028;38.968;2024-02-21T00:16:37;4.20;69.60
49385;DHT22;36795;45.028;38.968;2024-02-21T00:19:24;4.20;69.40
49385;DHT22;36795;45.028;38.968;2024-02-21T00:22:10;4.10;69.50
49385;DHT22;36795;45.028;38.968;2024-02-21T00:24:56;4.00;69.50
49385;DHT22;36795;45.028;38.968;2024-02-21T00:27:44;3.90;69.70
49385;DHT22;36795;45.028;38.968;2024-02-21T00:30:30;3.90;69.80
49385;DHT22;36795;45.028;38.968;2024-02-21T00:33:17;3.90;69.80
49385;DHT22;36795;45.028;38.968;2024-02-21T00:36:03;3.90;70.10
49385;DHT22;36795;45.028;38.968;2024-02-21T00:38:50;3.90;70.00
49385;DHT22;36795;45.028;38.968;2024-02-21T00:41:35;4.00;69.90
49385;DHT22;36795;45.028;38.968;2024-02-21T00:44:22;4.00;69.80
49385;DHT22;36795;45.028;38.968;2024-02-21T00:47:08;4.00;69.80
49385;DHT22;36795;45.028;38.968;2024-02-21T00:49:54;4.00;69.70
49385;DHT22;36795;45.028;38.968;2024-02-21T00:52:41;4.10;69.60
49385;DHT22;36795;45.028;38.968;2024-02-21T00:55:35;4.00;69.50
49385;DHT22;36795;45.028;38.968;2024-02-21T00:58:21;4.00;69.60
49385;DHT22;36795;45.028;38.968;2024-02-21T01:01:07;4.10;69.70
49385;DHT22;36795;45.028;38.968;2024-02-21T01:03:53;4.00;69.40
49385;DHT22;36795;45.028;38.968;2024-02-21T01:06:40;4.00;69.30
49385;DHT22;36795;45.028;38.968;2024-02-21T01:09:28;4.00;69.30
49385;DHT22;36795;45.028;38.968;2024-02-21T01:12:14;3.90;69.30
49385;DHT22;36795;45.028;38.968;2024-02-21T01:15:00;3.90;69.40
49385;DHT22;36795;45.028;38.968;2024-02-21T01:17:47;3.90;69.40
49385;DHT22;36795;45.028;38.968;2024-02-21T01:20:54;3.90;69.40
49385;DHT22;36795;45.028;38.968;2024-02-21T01:23:40;3.90;69.30
49385;DHT22;36795;45.028;38.968;2024-02-21T01:26:26;3.80;69.30
49385;DHT22;36795;45.028;38.968;2024-02-21T01:29:14;3.80;69.40
49385;DHT22;36795;45.028;38.968;2024-02-21T01:32:01;3.80;69.60
49385;DHT22;36795;45.028;38.968;2024-02-21T01:34:47;3.80;69.50
49385;DHT22;36795;45.028;38.968;2024-02-21T01:37:47;3.90;69.30
49385;DHT22;36795;45.028;38.968;2024-02-21T01:40:34;3.90;69.10
49385;DHT22;36795;45.028;38.968;2024-02-21T01:43:21;3.90;69.20
49385;DHT22;36795;45.028;38.968;2024-02-21T01:46:08;3.80;69.10
49385;DHT22;36795;45.028;38.968;2024-02-21T01:48:57;3.80;69.10
49385;DHT22;36795;45.028;38.968;2024-02-21T01:51:43;3.80;69.00
49385;DHT22;36795;45.028;38.968;2024-02-21T01:54:33;3.70;69.10
49385;DHT22;36795;45.028;38.968;2024-02-21T01:57:19;3.70;69.20
49385;DHT22;36795;45.028;38.968;2024-02-21T02:00:06;3.70;69.20
49385;DHT22;36795;45.028;38.968;2024-02-21T02:02:55;3.60;69.20
49385;DHT22;36795;45.028;38.968;2024-02-21T02:05:48;3.60;69.20
49385;DHT22;36795;45.028;38.968;2024-02-21T02:08:34;3.50;69.20
49385;DHT22;36795;45.028;38.968;2024-02-21T02:11:21;3.50;69.30
49385;DHT22;36795;45.028;38.968;2024-02-21T02:14:06;3.50;69.20
49385;DHT22;36795;45.028;38.968;2024-02-21T02:16:52;3.50;69.10
49385;DHT22;36795;45.028;38.968;2024-02-21T02:19:38;3.50;69.20
49385;DHT22;36795;45.028;38.968;2024-02-21T02:22:29;3.40;69.20
49385;DHT22;36795;45.028;38.968;2024-02-21T02:25:15;3.40;69.40
49385;DHT22;36795;45.028;38.968;2024-02-21T02:31:44;3.40;69.40
49385;DHT22;36795;45.028;38.968;2024-02-21T02:34:30;3.40;69.40
49385;DHT22;36795;45.028;38.968;2024-02-21T02:40:40;3.30;69.50
49385;DHT22;36795;45.028;38.968;2024-02-21T02:47:25;3.30;69.50
49385;DHT22;36795;45.028;38.968;2024-02-21T02:50:12;3.20;69.60
49385;DHT22;36795;45.028;38.968;2024-02-21T02:52:58;3.20;69.90
49385;DHT22;36795;45.028;38.968;2024-02-21T02:55:44;3.20;69.80
49385;DHT22;36795;45.028;38.968;2024-02-21T02:58:30;3.20;69.80
49385;DHT22;36795;45.028;38.968;2024-02-21T03:01:16;3.20;69.80
49385;DHT22;36795;45.028;38.968;2024-02-21T03:04:02;3.30;69.70
49385;DHT22;36795;45.028;38.968;2024-02-21T03:06:49;3.30;69.70
49385;DHT22;36795;45.028;38.968;2024-02-21T03:09:36;3.40;69.70
49385;DHT22;36795;45.028;38.968;2024-02-21T03:12:22;3.30;69.70
49385;DHT22;36795;45.028;38.968;2024-02-21T03:15:13;3.20;69.90
49385;DHT22;36795;45.028;38.968;2024-02-21T03:18:00;3.20;70.00
49385;DHT22;36795;45.028;38.968;2024-02-21T03:20:46;3.20;70.10
49385;DHT22;36795;45.028;38.968;2024-02-21T03:23:32;3.20;70.00
49385;DHT22;36795;45.028;38.968;2024-02-21T03:26:18;3.10;70.10
49385;DHT22;36795;45.028;38.968;2024-02-21T03:29:04;3.20;70.20
49385;DHT22;36795;45.028;38.968;2024-02-21T03:31:50;3.20;70.00
49385;DHT22;36795;45.028;38.968;2024-02-21T03:34:36;3.20;70.10
49385;DHT22;36795;45.028;38.968;2024-02-21T03:37:22;3.20;70.30
49385;DHT22;36795;45.028;38.968;2024-02-21T03:40:09;3.20;70.20
49385;DHT22;36795;45.028;38.968;2024-02-21T03:42:55;3.10;70.40
49385;DHT22;36795;45.028;38.968;2024-02-21T03:45:42;3.00;70.60
49385;DHT22;36795;45.028;38.968;2024-02-21T03:48:28;3.10;70.90
49385;DHT22;36795;45.028;38.968;2024-02-21T03:51:14;3.10;70.80
49385;DHT22;36795;45.028;38.968;2024-02-21T03:54:00;3.20;70.60
49385;DHT22;36795;45.028;38.968;2024-02-21T03:56:47;3.10;70.50
49385;DHT22;36795;45.028;38.968;2024-02-21T03:59:38;3.10;70.80
49385;DHT22;36795;45.028;38.968;2024-02-21T04:02:26;3.10;70.90
49385;DHT22;36795;45.028;38.968;2024-02-21T04:05:16;3.10;70.80
49385;DHT22;36795;45.028;38.968;2024-02-21T04:08:04;3.10;70.90
49385;DHT22;36795;45.028;38.968;2024-02-21T04:10:51;3.20;70.90
49385;DHT22;36795;45.028;38.968;2024-02-21T04:13:37;3.10;70.90
49385;DHT22;36795;45.028;38.968;2024-02-21T04:16:23;3.10;71.10
49385;DHT22;36795;45.028;38.968;2024-02-21T04:19:09;3.20;71.10
49385;DHT22;36795;45.028;38.968;2024-02-21T04:21:55;3.10;71.50
49385;DHT22;36795;45.028;38.968;2024-02-21T04:24:41;3.00;71.10
49385;DHT22;36795;45.028;38.968;2024-02-21T04:27:27;3.10;71.30
49385;DHT22;36795;45.028;38.968;2024-02-21T04:30:13;3.10;71.40
49385;DHT22;36795;45.028;38.968;2024-02-21T04:33:01;3.10;71.20
49385;DHT22;36795;45.028;38.968;2024-02-21T04:35:47;3.10;71.20
49385;DHT22;36795;45.028;38.968;2024-02-21T04:38:33;3.10;71.30
49385;DHT22;36795;45.028;38.968;2024-02-21T04:41:21;3.20;71.40
49385;DHT22;36795;45.028;38.968;2024-02-21T04:44:08;3.20;71.30
49385;DHT22;36795;45.028;38.968;2024-02-21T04:46:56;3.30;71.10
49385;DHT22;36795;45.028;38.968;2024-02-21T04:49:42;3.30;71.10
49385;DHT22;36795;45.028;38.968;2024-02-21T04:52:28;3.20;71.20
49385;DHT22;36795;45.028;38.968;2024-02-21T04:55:15;3.30;71.30
49385;DHT22;36795;45.028;38.968;2024-02-21T04:58:01;3.40;71.10
49385;DHT22;36795;45.028;38.968;2024-02-21T05:00:54;3.50;71.00
49385;DHT22;36795;45.028;38.968;2024-02-21T05:03:40;3.50;70.80
49385;DHT22;36795;45.028;38.968;2024-02-21T05:06:27;3.50;70.60
49385;DHT22;36795;45.028;38.968;2024-02-21T05:09:14;3.50;70.80
49385;DHT22;36795;45.028;38.968;2024-02-21T05:12:01;3.40;70.90
49385;DHT22;36795;45.028;38.968;2024-02-21T05:14:47;3.50;70.90
49385;DHT22;36795;45.028;38.968;2024-02-21T05:17:33;3.50;70.90
49385;DHT22;36795;45.028;38.968;2024-02-21T05:20:19;3.40;71.10
49385;DHT22;36795;45.028;38.968;2024-02-21T05:23:07;3.50;71.00
49385;DHT22;36795;45.028;38.968;2024-02-21T05:25:53;3.50;70.80
49385;DHT22;36795;45.028;38.968;2024-02-21T05:28:39;3.50;70.70
49385;DHT22;36795;45.028;38.968;2024-02-21T05:31:25;3.60;70.70
49385;DHT22;36795;45.028;38.968;2024-02-21T05:34:11;3.60;70.70
49385;DHT22;36795;45.028;38.968;2024-02-21T05:36:57;3.60;70.50
49385;DHT22;36795;45.028;38.968;2024-02-21T05:39:45;3.70;70.50
49385;DHT22;36795;45.028;38.968;2024-02-21T05:42:31;3.80;70.40
49385;DHT22;36795;45.028;38.968;2024-02-21T05:45:19;3.80;70.30
49385;DHT22;36795;45.028;38.968;2024-02-21T05:48:05;4.00;70.20
49385;DHT22;36795;45.028;38.968;2024-02-21T05:50:52;4.10;69.90
49385;DHT22;36795;45.028;38.968;2024-02-21T05:53:40;4.20;69.60
49385;DHT22;36795;45.028;38.968;2024-02-21T05:56:26;4.20;69.40
49385;DHT22;36795;45.028;38.968;2024-02-21T05:59:12;4.20;69.40
49385;DHT22;36795;45.028;38.968;2024-02-21T06:01:59;4.20;69.30
49385;DHT22;36795;45.028;38.968;2024-02-21T06:04:45;4.20;69.30
49385;DHT22;36795;45.028;38.968;2024-02-21T06:07:31;4.30;69.20
49385;DHT22;36795;45.028;38.968;2024-02-21T06:10:17;4.30;68.90
49385;DHT22;36795;45.028;38.968;2024-02-21T06:13:03;4.40;69.00
49385;DHT22;36795;45.028;38.968;2024-02-21T06:15:50;4.50;68.60
49385;DHT22;36795;45.028;38.968;2024-02-21T06:18:36;4.50;68.30
49385;DHT22;36795;45.028;38.968;2024-02-21T06:21:29;4.40;68.30
49385;DHT22;36795;45.028;38.968;2024-02-21T06:24:23;4.30;68.70
49385;DHT22;36795;45.028;38.968;2024-02-21T06:27:09;4.20;68.80
49385;DHT22;36795;45.028;38.968;2024-02-21T06:29:56;4.20;68.80
49385;DHT22;36795;45.028;38.968;2024-02-21T06:32:46;4.20;68.70
49385;DHT22;36795;45.028;38.968;2024-02-21T06:35:32;4.20;68.80
49385;DHT22;36795;45.028;38.968;2024-02-21T06:38:18;4.20;69.00
49385;DHT22;36795;45.028;38.968;2024-02-21T06:41:05;4.30;68.90
49385;DHT22;36795;45.028;38.968;2024-02-21T06:43:51;4.40;68.90
49385;DHT22;36795;45.028;38.968;2024-02-21T06:46:37;4.50;68.50
49385;DHT22;36795;45.028;38.968;2024-02-21T06:49:23;4.60;68.50
49385;DHT22;36795;45.028;38.968;2024-02-21T06:52:10;4.80;68.40
49385;DHT22;36795;45.028;38.968;2024-02-21T06:54:57;4.90;68.10
49385;DHT22;36795;45.028;38.968;2024-02-21T06:57:43;5.10;67.90
49385;DHT22;36795;45.028;38.968;2024-02-21T07:00:31;5.10;67.30
49385;DHT22;36795;45.028;38.968;2024-02-21T07:03:18;5.10;67.20
49385;DHT22;36795;45.028;38.968;2024-02-21T07:06:04;5.00;67.10
49385;DHT22;36795;45.028;38.968;2024-02-21T07:08:50;4.90;67.20
49385;DHT22;36795;45.028;38.968;2024-02-21T07:11:37;4.90;67.50
49385;DHT22;36795;45.028;38.968;2024-02-21T07:14:28;5.00;67.40
49385;DHT22;36795;45.028;38.968;2024-02-21T07:20:20;5.30;66.90
49385;DHT22;36795;45.028;38.968;2024-02-21T07:23:10;5.40;66.50
49385;DHT22;36795;45.028;38.968;2024-02-21T07:25:59;5.40;66.40
49385;DHT22;36795;45.028;38.968;2024-02-21T07:28:45;5.40;66.20
49385;DHT22;36795;45.028;38.968;2024-02-21T07:31:31;5.40;66.40
49385;DHT22;36795;45.028;38.968;2024-02-21T07:34:18;5.50;66.50
49385;DHT22;36795;45.028;38.968;2024-02-21T07:37:04;5.40;66.30
49385;DHT22;36795;45.028;38.968;2024-02-21T07:39:50;5.40;66.50
49385;DHT22;36795;45.028;38.968;2024-02-21T07:42:37;5.40;66.60
49385;DHT22;36795;45.028;38.968;2024-02-21T07:45:42;5.30;66.60
49385;DHT22;36795;45.028;38.968;2024-02-21T07:48:29;5.40;66.60
49385;DHT22;36795;45.028;38.968;2024-02-21T07:51:15;5.40;66.40
49385;DHT22;36795;45.028;38.968;2024-02-21T07:54:05;5.40;66.60
49385;DHT22;36795;45.028;38.968;2024-02-21T07:56:52;5.30;66.60
49385;DHT22;36795;45.028;38.968;2024-02-21T07:59:37;5.30;67.10
49385;DHT22;36795;45.028;38.968;2024-02-21T08:02:24;5.20;67.20
49385;DHT22;36795;45.028;38.968;2024-02-21T08:05:10;5.30;67.50
49385;DHT22;36795;45.028;38.968;2024-02-21T08:07:58;5.40;67.60
49385;DHT22;36795;45.028;38.968;2024-02-21T08:10:46;5.90;67.30
49385;DHT22;36795;45.028;38.968;2024-02-21T08:13:32;6.20;66.30
49385;DHT22;36795;45.028;38.968;2024-02-21T08:16:18;6.60;65.50
49385;DHT22;36795;45.028;38.968;2024-02-21T08:19:04;6.70;64.60
49385;DHT22;36795;45.028;38.968;2024-02-21T08:21:51;6.60;65.00
49385;DHT22;36795;45.028;38.968;2024-02-21T08:24:36;6.70;64.90
49385;DHT22;36795;45.028;38.968;2024-02-21T08:27:23;6.70;64.80
49385;DHT22;36795;45.028;38.968;2024-02-21T08:30:09;6.80;64.70
49385;DHT22;36795;45.028;38.968;2024-02-21T08:32:55;6.90;64.20
49385;DHT22;36795;45.028;38.968;2024-02-21T08:35:42;8.10;64.30
49385;DHT22;36795;45.028;38.968;2024-02-21T08:38:28;11.30;57.90
49385;DHT22;36795;45.028;38.968;2024-02-21T08:41:14;14.00;50.90
49385;DHT22;36795;45.028;38.968;2024-02-21T08:44:01;15.80;46.80
49385;DHT22;36795;45.028;38.968;2024-02-21T08:46:47;16.90;43.90
49385;DHT22;36795;45.028;38.968;2024-02-21T08:49:37;18.10;42.00
49385;DHT22;36795;45.028;38.968;2024-02-21T08:52:23;18.60;39.40
49385;DHT22;36795;45.028;38.968;2024-02-21T08:55:10;19.60;38.20
49385;DHT22;36795;45.028;38.968;2024-02-21T08:57:56;20.00;37.60
49385;DHT22;36795;45.028;38.968;2024-02-21T09:00:42;20.90;35.80
49385;DHT22;36795;45.028;38.968;2024-02-21T09:03:27;22.20;34.80
49385;DHT22;36795;45.028;38.968;2024-02-21T09:06:14;21.70;33.90
49385;DHT22;36795;45.028;38.968;2024-02-21T09:09:00;20.20;35.30
49385;DHT22;36795;45.028;38.968;2024-02-21T09:11:46;18.50;36.70
49385;DHT22;36795;45.028;38.968;2024-02-21T09:14:33;16.50;39.20
49385;DHT22;36795;45.028;38.968;2024-02-21T09:17:19;15.40;41.30
49385;DHT22;36795;45.028;38.968;2024-02-21T09:20:10;14.00;43.10
49385;DHT22;36795;45.028;38.968;2024-02-21T09:22:57;12.60;45.00
49385;DHT22;36795;45.028;38.968;2024-02-21T09:25:43;11.60;47.20
49385;DHT22;36795;45.028;38.968;2024-02-21T09:28:30;11.50;48.30
49385;DHT22;36795;45.028;38.968;2024-02-21T09:31:16;11.60;48.00
49385;DHT22;36795;45.028;38.968;2024-02-21T09:34:03;11.00;48.90
49385;DHT22;36795;45.028;38.968;2024-02-21T09:36:49;10.90;50.10
49385;DHT22;36795;45.028;38.968;2024-02-21T09:39:36;12.30;47.90
49385;DHT22;36795;45.028;38.968;2024-02-21T09:42:25;13.80;44.80
49385;DHT22;36795;45.028;38.968;2024-02-21T09:45:24;14.80;42.40
49385;DHT22;36795;45.028;38.968;2024-02-21T09:48:44;15.30;41.10
49385;DHT22;36795;45.028;38.968;2024-02-21T09:51:41;14.80;41.50
49385;DHT22;36795;45.028;38.968;2024-02-21T09:54:28;13.90;43.60
49385;DHT22;36795;45.028;38.968;2024-02-21T09:57:18;13.00;44.80
49385;DHT22;36795;45.028;38.968;2024-02-21T10:00:06;12.10;45.70
49385;DHT22;36795;45.028;38.968;2024-02-21T10:02:58;11.30;47.20
49385;DHT22;36795;45.028;38.968;2024-02-21T10:05:49;10.70;47.40
49385;DHT22;36795;45.028;38.968;2024-02-21T10:08:37;10.20;48.30
49385;DHT22;36795;45.028;38.968;2024-02-21T10:11:24;9.80;49.30
49385;DHT22;36795;45.028;38.968;2024-02-21T10:14:10;9.60;49.80
49385;DHT22;36795;45.028;38.968;2024-02-21T10:16:58;9.50;50.40
49385;DHT22;36795;45.028;38.968;2024-02-21T10:19:44;9.60;50.70
49385;DHT22;36795;45.028;38.968;2024-02-21T10:22:31;9.80;50.80
49385;DHT22;36795;45.028;38.968;2024-02-21T10:25:21;9.90;50.70
49385;DHT22;36795;45.028;38.968;2024-02-21T10:28:07;9.80;50.60
49385;DHT22;36795;45.028;38.968;2024-02-21T10:30:53;9.60;50.80
49385;DHT22;36795;45.028;38.968;2024-02-21T10:33:42;9.50;51.40
49385;DHT22;36795;45.028;38.968;2024-02-21T10:36:29;9.50;51.40
49385;DHT22;36795;45.028;38.968;2024-02-21T10:39:16;10.90;50.90
49385;DHT22;36795;45.028;38.968;2024-02-21T10:42:03;12.40;47.00
49385;DHT22;36795;45.028;38.968;2024-02-21T10:44:51;12.60;45.00
49385;DHT22;36795;45.028;38.968;2024-02-21T10:47:40;13.00;44.60
49385;DHT22;36795;45.028;38.968;2024-02-21T10:50:32;13.70;43.10
49385;DHT22;36795;45.028;38.968;2024-02-21T10:53:45;14.10;42.90
49385;DHT22;36795;45.028;38.968;2024-02-21T10:56:35;14.20;41.80
49385;DHT22;36795;45.028;38.968;2024-02-21T10:59:25;13.50;42.10
49385;DHT22;36795;45.028;38.968;2024-02-21T11:02:14;12.60;43.20
49385;DHT22;36795;45.028;38.968;2024-02-21T11:05:02;11.90;44.50
49385;DHT22;36795;45.028;38.968;2024-02-21T11:07:49;11.70;45.70
49385;DHT22;36795;45.028;38.968;2024-02-21T11:10:37;12.00;46.00
49385;DHT22;36795;45.028;38.968;2024-02-21T11:13:37;13.00;45.30
49385;DHT22;36795;45.028;38.968;2024-02-21T11:16:23;14.70;41.50
49385;DHT22;36795;45.028;38.968;2024-02-21T11:19:22;15.90;38.80
49385;DHT22;36795;45.028;38.968;2024-02-21T11:22:19;16.90;38.80
49385;DHT22;36795;45.028;38.968;2024-02-21T11:25:08;17.90;36.30
49385;DHT22;36795;45.028;38.968;2024-02-21T11:28:04;18.70;35.20
49385;DHT22;36795;45.028;38.968;2024-02-21T11:30:53;19.70;34.40
49385;DHT22;36795;45.028;38.968;2024-02-21T11:33:41;20.50;32.50
49385;DHT22;36795;45.028;38.968;2024-02-21T11:36:31;21.20;32.10
49385;DHT22;36795;45.028;38.968;2024-02-21T11:39:21;21.20;30.40
49385;DHT22;36795;45.028;38.968;2024-02-21T11:42:08;20.80;30.40
49385;DHT22;36795;45.028;38.968;2024-02-21T11:44:56;20.60;30.50
49385;DHT22;36795;45.028;38.968;2024-02-21T11:47:43;20.20;30.90
49385;DHT22;36795;45.028;38.968;2024-02-21T11:50:30;19.80;31.20
49385;DHT22;36795;45.028;38.968;2024-02-21T11:53:17;19.60;31.60
49385;DHT22;36795;45.028;38.968;2024-02-21T11:56:03;19.00;32.10
49385;DHT22;36795;45.028;38.968;2024-02-21T11:58:50;18.70;32.10
49385;DHT22;36795;45.028;38.968;2024-02-21T12:01:36;18.50;32.40
49385;DHT22;36795;45.028;38.968;2024-02-21T12:04:22;18.60;32.80
49385;DHT22;36795;45.028;38.968;2024-02-21T12:07:11;18.60;32.50
49385;DHT22;36795;45.028;38.968;2024-02-21T12:09:59;18.70;32.60
49385;DHT22;36795;45.028;38.968;2024-02-21T12:12:45;18.70;31.90
49385;DHT22;36795;45.028;38.968;2024-02-21T12:15:33;18.30;32.70
49385;DHT22;36795;45.028;38.968;2024-02-21T12:18:22;17.90;33.50
49385;DHT22;36795;45.028;38.968;2024-02-21T12:21:09;18.00;33.70
49385;DHT22;36795;45.028;38.968;2024-02-21T12:23:56;18.40;32.70
49385;DHT22;36795;45.028;38.968;2024-02-21T12:26:43;18.50;32.30
49385;DHT22;36795;45.028;38.968;2024-02-21T12:29:28;18.70;32.60
49385;DHT22;36795;45.028;38.968;2024-02-21T12:32:15;19.10;32.30
49385;DHT22;36795;45.028;38.968;2024-02-21T12:35:02;19.40;32.20
49385;DHT22;36795;45.028;38.968;2024-02-21T12:37:49;19.00;32.70
49385;DHT22;36795;45.028;38.968;2024-02-21T12:40:36;18.70;33.40
49385;DHT22;36795;45.028;38.968;2024-02-21T12:43:30;18.40;33.90
49385;DHT22;36795;45.028;38.968;2024-02-21T12:46:16;18.30;34.10
49385;DHT22;36795;45.028;38.968;2024-02-21T12:49:03;18.10;34.20
49385;DHT22;36795;45.028;38.968;2024-02-21T12:51:49;17.50;34.70
49385;DHT22;36795;45.028;38.968;2024-02-21T12:54:36;17.20;35.40
49385;DHT22;36795;45.028;38.968;2024-02-21T12:57:22;16.80;35.80
49385;DHT22;36795;45.028;38.968;2024-02-21T13:00:09;16.40;36.20
49385;DHT22;36795;45.028;38.968;2024-02-21T13:02:56;16.10;36.50
49385;DHT22;36795;45.028;38.968;2024-02-21T13:05:43;15.70;37.00
49385;DHT22;36795;45.028;38.968;2024-02-21T13:08:30;15.20;37.90
49385;DHT22;36795;45.028;38.968;2024-02-21T13:11:17;15.20;38.10
49385;DHT22;36795;45.028;38.968;2024-02-21T13:14:03;15.20;38.40
49385;DHT22;36795;45.028;38.968;2024-02-21T13:16:49;15.30;38.20
49385;DHT22;36795;45.028;38.968;2024-02-21T13:19:35;15.20;38.20
49385;DHT22;36795;45.028;38.968;2024-02-21T13:22:21;15.00;38.50
49385;DHT22;36795;45.028;38.968;2024-02-21T13:25:11;15.20;38.40
49385;DHT22;36795;45.028;38.968;2024-02-21T13:28:00;15.40;38.00
49385;DHT22;36795;45.028;38.968;2024-02-21T13:30:47;15.70;37.60
49385;DHT22;36795;45.028;38.968;2024-02-21T13:33:34;15.60;37.30
49385;DHT22;36795;45.028;38.968;2024-02-21T13:36:20;15.20;37.90
49385;DHT22;36795;45.028;38.968;2024-02-21T13:39:06;15.10;38.30
49385;DHT22;36795;45.028;38.968;2024-02-21T13:41:54;15.00;38.60
49385;DHT22;36795;45.028;38.968;2024-02-21T13:44:40;14.50;39.20
49385;DHT22;36795;45.028;38.968;2024-02-21T13:47:29;13.90;40.10
49385;DHT22;36795;45.028;38.968;2024-02-21T13:50:16;13.60;40.80
49385;DHT22;36795;45.028;38.968;2024-02-21T13:53:02;13.10;41.60
49385;DHT22;36795;45.028;38.968;2024-02-21T13:55:49;12.70;41.90
49385;DHT22;36795;45.028;38.968;2024-02-21T13:58:35;12.30;42.40
49385;DHT22;36795;45.028;38.968;2024-02-21T14:01:23;11.70;43.20
49385;DHT22;36795;45.028;38.968;2024-02-21T14:04:09;11.00;44.30
49385;DHT22;36795;45.028;38.968;2024-02-21T14:06:56;10.50;45.10
49385;DHT22;36795;45.028;38.968;2024-02-21T14:09:42;10.30;45.50
49385;DHT22;36795;45.028;38.968;2024-02-21T14:12:28;10.00;45.80
49385;DHT22;36795;45.028;38.968;2024-02-21T14:15:15;9.90;46.30
49385;DHT22;36795;45.028;38.968;2024-02-21T14:18:02;9.80;46.80
49385;DHT22;36795;45.028;38.968;2024-02-21T14:20:48;9.50;47.30
49385;DHT22;36795;45.028;38.968;2024-02-21T14:23:34;9.40;47.80
49385;DHT22;36795;45.028;38.968;2024-02-21T14:26:21;9.20;48.30
49385;DHT22;36795;45.028;38.968;2024-02-21T14:29:07;9.00;48.60
49385;DHT22;36795;45.028;38.968;2024-02-21T14:31:54;8.90;49.00
49385;DHT22;36795;45.028;38.968;2024-02-21T14:34:40;8.70;49.30
49385;DHT22;36795;45.028;38.968;2024-02-21T14:37:27;8.60;49.80
49385;DHT22;36795;45.028;38.968;2024-02-21T14:40:13;8.50;50.30
49385;DHT22;36795;45.028;38.968;2024-02-21T14:43:00;8.20;50.50
49385;DHT22;36795;45.028;38.968;2024-02-21T14:45:46;8.00;50.80
49385;DHT22;36795;45.028;38.968;2024-02-21T14:48:34;7.80;51.10
49385;DHT22;36795;45.028;38.968;2024-02-21T14:51:19;7.70;51.40
49385;DHT22;36795;45.028;38.968;2024-02-21T14:54:06;7.60;51.70
49385;DHT22;36795;45.028;38.968;2024-02-21T14:56:51;7.40;52.00
49385;DHT22;36795;45.028;38.968;2024-02-21T14:59:40;7.30;52.50
49385;DHT22;36795;45.028;38.968;2024-02-21T15:02:25;7.20;52.90
49385;DHT22;36795;45.028;38.968;2024-02-21T15:05:13;7.10;53.60
49385;DHT22;36795;45.028;38.968;2024-02-21T15:07:59;7.00;54.10
49385;DHT22;36795;45.028;38.968;2024-02-21T15:10:46;6.90;54.30
49385;DHT22;36795;45.028;38.968;2024-02-21T15:13:33;6.80;54.60
49385;DHT22;36795;45.028;38.968;2024-02-21T15:16:20;6.80;55.10
49385;DHT22;36795;45.028;38.968;2024-02-21T15:19:06;6.70;55.30
49385;DHT22;36795;45.028;38.968;2024-02-21T15:21:53;6.60;55.50
49385;DHT22;36795;45.028;38.968;2024-02-21T15:24:41;6.60;56.00
49385;DHT22;36795;45.028;38.968;2024-02-21T15:27:28;6.60;55.90
49385;DHT22;36795;45.028;38.968;2024-02-21T15:30:14;6.50;55.80
49385;DHT22;36795;45.028;38.968;2024-02-21T15:33:00;6.40;55.80
49385;DHT22;36795;45.028;38.968;2024-02-21T15:35:47;6.30;55.80
49385;DHT22;36795;45.028;38.968;2024-02-21T15:38:33;6.30;56.00
49385;DHT22;36795;45.028;38.968;2024-02-21T15:41:19;6.30;56.00
49385;DHT22;36795;45.028;38.968;2024-02-21T15:44:07;6.20;56.10
49385;DHT22;36795;45.028;38.968;2024-02-21T15:46:53;6.20;56.20
49385;DHT22;36795;45.028;38.968;2024-02-21T15:49:39;6.10;56.40
49385;DHT22;36795;45.028;38.968;2024-02-21T15:52:25;6.10;56.70
49385;DHT22;36795;45.028;38.968;2024-02-21T15:55:12;6.00;56.80
49385;DHT22;36795;45.028;38.968;2024-02-21T15:57:58;6.00;57.00
49385;DHT22;36795;45.028;38.968;2024-02-21T16:00:45;5.90;57.40
49385;DHT22;36795;45.028;38.968;2024-02-21T16:03:31;5.90;57.80
49385;DHT22;36795;45.028;38.968;2024-02-21T16:06:21;5.90;58.30
49385;DHT22;36795;45.028;38.968;2024-02-21T16:09:08;5.80;58.80
49385;DHT22;36795;45.028;38.968;2024-02-21T16:11:55;5.80;59.10
49385;DHT22;36795;45.028;38.968;2024-02-21T16:14:42;5.70;59.30
49385;DHT22;36795;45.028;38.968;2024-02-21T16:17:37;5.70;59.60
49385;DHT22;36795;45.028;38.968;2024-02-21T16:20:27;5.70;59.80
49385;DHT22;36795;45.028;38.968;2024-02-21T16:23:19;5.70;60.00
49385;DHT22;36795;45.028;38.968;2024-02-21T16:26:06;5.60;60.30
49385;DHT22;36795;45.028;38.968;2024-02-21T16:28:52;5.50;60.60
49385;DHT22;36795;45.028;38.968;2024-02-21T16:31:38;5.50;61.00
49385;DHT22;36795;45.028;38.968;2024-02-21T16:34:25;5.40;61.10
49385;DHT22;36795;45.028;38.968;2024-02-21T16:37:12;5.40;61.40
49385;DHT22;36795;45.028;38.968;2024-02-21T16:40:01;5.30;61.40
49385;DHT22;36795;45.028;38.968;2024-02-21T16:42:54;5.30;61.70
49385;DHT22;36795;45.028;38.968;2024-02-21T16:45:40;5.30;61.60
49385;DHT22;36795;45.028;38.968;2024-02-21T16:48:27;5.40;61.90
49385;DHT22;36795;45.028;38.968;2024-02-21T16:51:15;5.30;61.80
49385;DHT22;36795;45.028;38.968;2024-02-21T16:54:02;5.30;61.90
49385;DHT22;36795;45.028;38.968;2024-02-21T16:56:53;5.30;62.10
49385;DHT22;36795;45.028;38.968;2024-02-21T16:59:39;5.20;62.10
49385;DHT22;36795;45.028;38.968;2024-02-21T17:02:25;5.10;62.20
49385;DHT22;36795;45.028;38.968;2024-02-21T17:05:13;5.20;62.30
49385;DHT22;36795;45.028;38.968;2024-02-21T17:07:59;5.20;62.30
49385;DHT22;36795;45.028;38.968;2024-02-21T17:10:45;5.20;62.50
49385;DHT22;36795;45.028;38.968;2024-02-21T17:13:31;5.10;62.50
49385;DHT22;36795;45.028;38.968;2024-02-21T17:16:19;5.10;62.70
49385;DHT22;36795;45.028;38.968;2024-02-21T17:19:14;5.00;62.90
49385;DHT22;36795;45.028;38.968;2024-02-21T17:22:10;5.00;63.30
49385;DHT22;36795;45.028;38.968;2024-02-21T17:24:57;4.90;63.40
49385;DHT22;36795;45.028;38.968;2024-02-21T17:27:46;4.90;63.60
49385;DHT22;36795;45.028;38.968;2024-02-21T17:30:37;4.90;63.70
49385;DHT22;36795;45.028;38.968;2024-02-21T17:33:25;4.90;63.90
49385;DHT22;36795;45.028;38.968;2024-02-21T17:36:13;4.80;64.00
49385;DHT22;36795;45.028;38.968;2024-02-21T17:38:59;4.90;64.30
49385;DHT22;36795;45.028;38.968;2024-02-21T17:41:45;4.80;64.50
49385;DHT22;36795;45.028;38.968;2024-02-21T17:44:32;4.80;64.50
49385;DHT22;36795;45.028;38.968;2024-02-21T17:47:17;4.70;64.70